sensor_id;sensor_type;location;lat;lon;timestamp;P1;durP1;ratioP1;P2;durP2;ratioP2
45103;SDS011;30865;51.288;4.572;2023-02-11T00:00:40;40.67;;;19.20;;
45103;SDS011;30865;51.288;4.572;2023-02-11T00:03:06;37.58;;;18.33;;
45103;SDS011;30865;51.288;4.572;2023-02-11T00:05:32;39.35;;;19.27;;
45103;SDS011;30865;51.288;4.572;2023-02-11T00:07:58;39.05;;;18.88;;
45103;SDS011;30865;51.288;4.572;2023-02-11T00:10:23;38.00;;;17.35;;
45103;SDS011;30865;51.288;4.572;2023-02-11T00:12:49;44.58;;;20.33;;
45103;SDS011;30865;51.288;4.572;2023-02-11T00:15:14;44.30;;;19.87;;
45103;SDS011;30865;51.288;4.572;2023-02-11T00:17:39;34.95;;;18.08;;
45103;SDS011;30865;51.288;4.572;2023-02-11T00:20:05;35.10;;;18.10;;
45103;SDS011;30865;51.288;4.572;2023-02-11T00:22:31;43.80;;;20.35;;
45103;SDS011;30865;51.288;4.572;2023-02-11T00:24:56;40.75;;;19.83;;
45103;SDS011;30865;51.288;4.572;2023-02-11T00:27:22;33.87;;;18.37;;
45103;SDS011;30865;51.288;4.572;2023-02-11T00:29:47;45.78;;;19.27;;
45103;SDS011;30865;51.288;4.572;2023-02-11T00:32:13;36.65;;;17.85;;
45103;SDS011;30865;51.288;4.572;2023-02-11T00:34:38;41.00;;;18.40;;
45103;SDS011;30865;51.288;4.572;2023-02-11T00:37:04;39.30;;;19.47;;
45103;SDS011;30865;51.288;4.572;2023-02-11T00:39:30;39.22;;;18.67;;
45103;SDS011;30865;51.288;4.572;2023-02-11T00:41:56;41.57;;;20.70;;
45103;SDS011;30865;51.288;4.572;2023-02-11T00:44:22;40.05;;;18.73;;
45103;SDS011;30865;51.288;4.572;2023-02-11T00:46:47;39.37;;;19.80;;
45103;SDS011;30865;51.288;4.572;2023-02-11T00:49:13;37.07;;;19.23;;
45103;SDS011;30865;51.288;4.572;2023-02-11T00:51:39;40.90;;;18.83;;
45103;SDS011;30865;51.288;4.572;2023-02-11T00:54:04;38.17;;;18.63;;
45103;SDS011;30865;51.288;4.572;2023-02-11T00:56:30;36.13;;;18.33;;
45103;SDS011;30865;51.288;4.572;2023-02-11T00:58:55;36.28;;;18.58;;
45103;SDS011;30865;51.288;4.572;2023-02-11T01:01:21;37.75;;;18.48;;
45103;SDS011;30865;51.288;4.572;2023-02-11T01:03:47;42.13;;;19.67;;
45103;SDS011;30865;51.288;4.572;2023-02-11T01:06:12;36.60;;;17.87;;
45103;SDS011;30865;51.288;4.572;2023-02-11T01:08:38;42.25;;;19.45;;
45103;SDS011;30865;51.288;4.572;2023-02-11T01:11:04;35.40;;;18.17;;
45103;SDS011;30865;51.288;4.572;2023-02-11T01:13:35;36.10;;;18.75;;
45103;SDS011;30865;51.288;4.572;2023-02-11T01:16:01;35.85;;;18.30;;
45103;SDS011;30865;51.288;4.572;2023-02-11T01:18:27;35.67;;;18.45;;
45103;SDS011;30865;51.288;4.572;2023-02-11T01:20:53;38.58;;;18.90;;
45103;SDS011;30865;51.288;4.572;2023-02-11T01:23:20;42.50;;;19.63;;
45103;SDS011;30865;51.288;4.572;2023-02-11T01:25:45;36.50;;;17.40;;
45103;SDS011;30865;51.288;4.572;2023-02-11T01:28:18;40.08;;;18.30;;
45103;SDS011;30865;51.288;4.572;2023-02-11T01:30:47;48.13;;;20.10;;
45103;SDS011;30865;51.288;4.572;2023-02-11T01:33:12;45.92;;;21.52;;
45103;SDS011;30865;51.288;4.572;2023-02-11T01:35:38;43.53;;;21.03;;
45103;SDS011;30865;51.288;4.572;2023-02-11T01:38:05;43.90;;;20.35;;
45103;SDS011;30865;51.288;4.572;2023-02-11T01:40:32;45.17;;;20.87;;
45103;SDS011;30865;51.288;4.572;2023-02-11T01:42:58;39.30;;;18.15;;
45103;SDS011;30865;51.288;4.572;2023-02-11T01:48:14;36.78;;;19.40;;
45103;SDS011;30865;51.288;4.572;2023-02-11T01:50:44;45.38;;;19.27;;
45103;SDS011;30865;51.288;4.572;2023-02-11T01:53:11;34.95;;;17.85;;
45103;SDS011;30865;51.288;4.572;2023-02-11T01:55:55;37.38;;;18.35;;
45103;SDS011;30865;51.288;4.572;2023-02-11T01:58:42;36.33;;;18.90;;
45103;SDS011;30865;51.288;4.572;2023-02-11T02:01:10;31.50;;;15.75;;
45103;SDS011;30865;51.288;4.572;2023-02-11T02:03:40;33.20;;;16.27;;
45103;SDS011;30865;51.288;4.572;2023-02-11T02:06:15;36.45;;;16.83;;
45103;SDS011;30865;51.288;4.572;2023-02-11T02:11:20;37.53;;;17.35;;
45103;SDS011;30865;51.288;4.572;2023-02-11T02:13:46;38.47;;;18.38;;
45103;SDS011;30865;51.288;4.572;2023-02-11T02:16:14;36.35;;;18.52;;
45103;SDS011;30865;51.288;4.572;2023-02-11T02:24:38;35.38;;;16.88;;
45103;SDS011;30865;51.288;4.572;2023-02-11T02:29:53;34.28;;;18.48;;
45103;SDS011;30865;51.288;4.572;2023-02-11T02:35:51;39.70;;;19.83;;
45103;SDS011;30865;51.288;4.572;2023-02-11T02:38:26;35.85;;;18.60;;
45103;SDS011;30865;51.288;4.572;2023-02-11T02:40:56;30.90;;;15.57;;
45103;SDS011;30865;51.288;4.572;2023-02-11T02:43:26;40.38;;;18.70;;
45103;SDS011;30865;51.288;4.572;2023-02-11T02:45:54;34.28;;;18.55;;
45103;SDS011;30865;51.288;4.572;2023-02-11T02:48:29;36.60;;;17.58;;
45103;SDS011;30865;51.288;4.572;2023-02-11T02:56:43;41.97;;;20.83;;
45103;SDS011;30865;51.288;4.572;2023-02-11T03:02:47;42.47;;;17.98;;
45103;SDS011;30865;51.288;4.572;2023-02-11T03:05:22;40.90;;;18.65;;
45103;SDS011;30865;51.288;4.572;2023-02-11T03:08:07;42.05;;;19.40;;
45103;SDS011;30865;51.288;4.572;2023-02-11T03:10:41;40.60;;;19.15;;
45103;SDS011;30865;51.288;4.572;2023-02-11T03:13:10;36.05;;;18.50;;
45103;SDS011;30865;51.288;4.572;2023-02-11T03:15:41;39.95;;;17.85;;
45103;SDS011;30865;51.288;4.572;2023-02-11T03:18:10;37.50;;;17.33;;
45103;SDS011;30865;51.288;4.572;2023-02-11T03:20:39;40.13;;;19.40;;
45103;SDS011;30865;51.288;4.572;2023-02-11T03:23:12;38.00;;;18.30;;
45103;SDS011;30865;51.288;4.572;2023-02-11T03:26:15;39.37;;;19.17;;
45103;SDS011;30865;51.288;4.572;2023-02-11T03:28:52;36.33;;;17.75;;
45103;SDS011;30865;51.288;4.572;2023-02-11T03:31:33;36.75;;;18.40;;
45103;SDS011;30865;51.288;4.572;2023-02-11T03:34:10;37.30;;;19.33;;
45103;SDS011;30865;51.288;4.572;2023-02-11T03:36:45;39.75;;;18.67;;
45103;SDS011;30865;51.288;4.572;2023-02-11T03:39:44;35.38;;;16.92;;
45103;SDS011;30865;51.288;4.572;2023-02-11T03:42:14;43.83;;;19.27;;
45103;SDS011;30865;51.288;4.572;2023-02-11T03:44:42;45.63;;;18.80;;
45103;SDS011;30865;51.288;4.572;2023-02-11T03:47:17;36.50;;;18.60;;
45103;SDS011;30865;51.288;4.572;2023-02-11T03:49:46;43.50;;;19.70;;
45103;SDS011;30865;51.288;4.572;2023-02-11T03:52:16;35.75;;;16.77;;
45103;SDS011;30865;51.288;4.572;2023-02-11T03:54:44;36.30;;;18.13;;
45103;SDS011;30865;51.288;4.572;2023-02-11T03:57:12;36.10;;;17.85;;
45103;SDS011;30865;51.288;4.572;2023-02-11T03:59:54;38.08;;;19.67;;
45103;SDS011;30865;51.288;4.572;2023-02-11T04:02:22;34.00;;;16.47;;
45103;SDS011;30865;51.288;4.572;2023-02-11T04:04:50;37.53;;;17.67;;
45103;SDS011;30865;51.288;4.572;2023-02-11T04:07:16;36.25;;;18.88;;
45103;SDS011;30865;51.288;4.572;2023-02-11T04:09:41;43.03;;;19.90;;
45103;SDS011;30865;51.288;4.572;2023-02-11T04:12:07;38.72;;;18.17;;
45103;SDS011;30865;51.288;4.572;2023-02-11T04:14:32;33.08;;;17.08;;
45103;SDS011;30865;51.288;4.572;2023-02-11T04:16:58;38.00;;;17.80;;
45103;SDS011;30865;51.288;4.572;2023-02-11T04:19:23;34.97;;;18.27;;
45103;SDS011;30865;51.288;4.572;2023-02-11T04:21:49;38.30;;;18.40;;
45103;SDS011;30865;51.288;4.572;2023-02-11T04:24:14;34.60;;;18.17;;
45103;SDS011;30865;51.288;4.572;2023-02-11T04:26:40;42.90;;;20.35;;
45103;SDS011;30865;51.288;4.572;2023-02-11T04:29:05;36.28;;;18.38;;
45103;SDS011;30865;51.288;4.572;2023-02-11T04:31:31;42.15;;;18.85;;
45103;SDS011;30865;51.288;4.572;2023-02-11T04:33:56;32.72;;;17.20;;
45103;SDS011;30865;51.288;4.572;2023-02-11T04:36:22;44.92;;;20.20;;
45103;SDS011;30865;51.288;4.572;2023-02-11T04:38:47;35.88;;;18.23;;
45103;SDS011;30865;51.288;4.572;2023-02-11T04:41:13;36.42;;;18.58;;
45103;SDS011;30865;51.288;4.572;2023-02-11T04:43:38;34.45;;;16.88;;
45103;SDS011;30865;51.288;4.572;2023-02-11T04:46:04;38.45;;;18.00;;
45103;SDS011;30865;51.288;4.572;2023-02-11T04:48:29;36.63;;;18.50;;
45103;SDS011;30865;51.288;4.572;2023-02-11T04:50:55;36.35;;;16.48;;
45103;SDS011;30865;51.288;4.572;2023-02-11T04:53:20;35.92;;;18.63;;
45103;SDS011;30865;51.288;4.572;2023-02-11T04:55:49;33.88;;;16.80;;
45103;SDS011;30865;51.288;4.572;2023-02-11T04:58:15;42.35;;;16.23;;
45103;SDS011;30865;51.288;4.572;2023-02-11T05:00:41;34.88;;;16.52;;
45103;SDS011;30865;51.288;4.572;2023-02-11T05:03:06;30.77;;;16.08;;
45103;SDS011;30865;51.288;4.572;2023-02-11T05:05:32;36.03;;;18.52;;
45103;SDS011;30865;51.288;4.572;2023-02-11T05:07:57;28.83;;;15.82;;
45103;SDS011;30865;51.288;4.572;2023-02-11T05:10:23;37.03;;;17.35;;
45103;SDS011;30865;51.288;4.572;2023-02-11T05:12:48;30.58;;;17.13;;
45103;SDS011;30865;51.288;4.572;2023-02-11T05:15:14;35.75;;;18.40;;
45103;SDS011;30865;51.288;4.572;2023-02-11T05:17:40;32.53;;;16.90;;
45103;SDS011;30865;51.288;4.572;2023-02-11T05:20:05;30.15;;;16.27;;
45103;SDS011;30865;51.288;4.572;2023-02-11T05:22:31;37.70;;;17.98;;
45103;SDS011;30865;51.288;4.572;2023-02-11T05:24:57;30.23;;;16.90;;
45103;SDS011;30865;51.288;4.572;2023-02-11T05:27:22;28.90;;;15.18;;
45103;SDS011;30865;51.288;4.572;2023-02-11T05:29:48;31.70;;;17.17;;
45103;SDS011;30865;51.288;4.572;2023-02-11T05:32:13;35.47;;;18.25;;
45103;SDS011;30865;51.288;4.572;2023-02-11T05:34:39;34.78;;;16.48;;
45103;SDS011;30865;51.288;4.572;2023-02-11T05:37:04;29.02;;;16.67;;
45103;SDS011;30865;51.288;4.572;2023-02-11T05:39:30;35.08;;;16.17;;
45103;SDS011;30865;51.288;4.572;2023-02-11T05:41:55;29.25;;;17.20;;
45103;SDS011;30865;51.288;4.572;2023-02-11T05:44:21;32.25;;;17.23;;
45103;SDS011;30865;51.288;4.572;2023-02-11T05:46:46;31.92;;;17.05;;
45103;SDS011;30865;51.288;4.572;2023-02-11T05:49:13;34.10;;;17.48;;
45103;SDS011;30865;51.288;4.572;2023-02-11T05:51:38;29.80;;;17.30;;
45103;SDS011;30865;51.288;4.572;2023-02-11T05:54:04;37.53;;;17.67;;
45103;SDS011;30865;51.288;4.572;2023-02-11T05:56:29;33.00;;;16.40;;
45103;SDS011;30865;51.288;4.572;2023-02-11T05:58:55;28.45;;;16.00;;
45103;SDS011;30865;51.288;4.572;2023-02-11T06:01:23;31.65;;;16.02;;
45103;SDS011;30865;51.288;4.572;2023-02-11T06:03:49;29.20;;;14.45;;
45103;SDS011;30865;51.288;4.572;2023-02-11T06:06:15;33.33;;;17.05;;
45103;SDS011;30865;51.288;4.572;2023-02-11T06:08:41;31.95;;;16.50;;
45103;SDS011;30865;51.288;4.572;2023-02-11T06:11:07;33.85;;;17.13;;
45103;SDS011;30865;51.288;4.572;2023-02-11T06:13:33;33.67;;;16.27;;
45103;SDS011;30865;51.288;4.572;2023-02-11T06:16:00;34.67;;;18.20;;
45103;SDS011;30865;51.288;4.572;2023-02-11T06:18:26;33.10;;;16.50;;
45103;SDS011;30865;51.288;4.572;2023-02-11T06:20:52;31.10;;;16.58;;
45103;SDS011;30865;51.288;4.572;2023-02-11T06:23:17;29.98;;;16.38;;
45103;SDS011;30865;51.288;4.572;2023-02-11T06:25:43;32.75;;;15.65;;
45103;SDS011;30865;51.288;4.572;2023-02-11T06:28:08;34.70;;;17.02;;
45103;SDS011;30865;51.288;4.572;2023-02-11T06:30:35;33.72;;;16.50;;
45103;SDS011;30865;51.288;4.572;2023-02-11T06:33:01;31.58;;;17.55;;
45103;SDS011;30865;51.288;4.572;2023-02-11T06:35:27;27.52;;;15.52;;
45103;SDS011;30865;51.288;4.572;2023-02-11T06:37:52;31.38;;;15.90;;
45103;SDS011;30865;51.288;4.572;2023-02-11T06:40:18;36.05;;;17.25;;
45103;SDS011;30865;51.288;4.572;2023-02-11T06:42:44;34.63;;;17.83;;
45103;SDS011;30865;51.288;4.572;2023-02-11T06:45:09;33.35;;;16.88;;
45103;SDS011;30865;51.288;4.572;2023-02-11T06:47:37;31.65;;;16.35;;
45103;SDS011;30865;51.288;4.572;2023-02-11T06:50:04;35.45;;;16.92;;
45103;SDS011;30865;51.288;4.572;2023-02-11T06:52:32;32.72;;;16.85;;
45103;SDS011;30865;51.288;4.572;2023-02-11T06:54:57;32.47;;;17.08;;
45103;SDS011;30865;51.288;4.572;2023-02-11T06:57:23;34.03;;;17.80;;
45103;SDS011;30865;51.288;4.572;2023-02-11T06:59:48;33.55;;;16.50;;
45103;SDS011;30865;51.288;4.572;2023-02-11T07:02:14;29.58;;;16.40;;
45103;SDS011;30865;51.288;4.572;2023-02-11T07:04:40;35.42;;;17.17;;
45103;SDS011;30865;51.288;4.572;2023-02-11T07:07:05;36.45;;;18.80;;
45103;SDS011;30865;51.288;4.572;2023-02-11T07:09:31;33.67;;;16.70;;
45103;SDS011;30865;51.288;4.572;2023-02-11T07:11:56;36.83;;;18.02;;
45103;SDS011;30865;51.288;4.572;2023-02-11T07:14:22;35.45;;;17.33;;
45103;SDS011;30865;51.288;4.572;2023-02-11T07:16:47;40.88;;;18.48;;
45103;SDS011;30865;51.288;4.572;2023-02-11T07:19:13;38.00;;;18.45;;
45103;SDS011;30865;51.288;4.572;2023-02-11T07:21:38;33.05;;;17.50;;
45103;SDS011;30865;51.288;4.572;2023-02-11T07:24:07;36.92;;;17.10;;
45103;SDS011;30865;51.288;4.572;2023-02-11T07:26:33;35.78;;;17.95;;
45103;SDS011;30865;51.288;4.572;2023-02-11T07:28:59;38.20;;;16.50;;
45103;SDS011;30865;51.288;4.572;2023-02-11T07:31:26;38.40;;;17.70;;
45103;SDS011;30865;51.288;4.572;2023-02-11T07:33:54;33.13;;;16.55;;
45103;SDS011;30865;51.288;4.572;2023-02-11T07:36:23;29.17;;;12.90;;
45103;SDS011;30865;51.288;4.572;2023-02-11T07:38:50;33.80;;;17.52;;
45103;SDS011;30865;51.288;4.572;2023-02-11T07:41:16;31.50;;;16.67;;
45103;SDS011;30865;51.288;4.572;2023-02-11T07:43:43;33.28;;;17.15;;
45103;SDS011;30865;51.288;4.572;2023-02-11T07:46:10;35.58;;;17.08;;
45103;SDS011;30865;51.288;4.572;2023-02-11T07:48:39;33.60;;;17.75;;
45103;SDS011;30865;51.288;4.572;2023-02-11T07:51:06;33.55;;;16.92;;
45103;SDS011;30865;51.288;4.572;2023-02-11T07:53:36;33.22;;;17.73;;
45103;SDS011;30865;51.288;4.572;2023-02-11T07:56:02;31.55;;;17.17;;
45103;SDS011;30865;51.288;4.572;2023-02-11T07:58:28;30.60;;;16.38;;
45103;SDS011;30865;51.288;4.572;2023-02-11T08:00:54;26.80;;;15.73;;
45103;SDS011;30865;51.288;4.572;2023-02-11T08:03:24;28.88;;;16.45;;
45103;SDS011;30865;51.288;4.572;2023-02-11T08:05:49;37.25;;;16.25;;
45103;SDS011;30865;51.288;4.572;2023-02-11T08:08:15;29.92;;;16.25;;
45103;SDS011;30865;51.288;4.572;2023-02-11T08:10:40;32.30;;;17.55;;
45103;SDS011;30865;51.288;4.572;2023-02-11T08:13:06;31.15;;;16.48;;
45103;SDS011;30865;51.288;4.572;2023-02-11T08:15:31;32.13;;;15.40;;
45103;SDS011;30865;51.288;4.572;2023-02-11T08:17:57;37.72;;;17.38;;
45103;SDS011;30865;51.288;4.572;2023-02-11T08:20:22;31.30;;;16.00;;
45103;SDS011;30865;51.288;4.572;2023-02-11T08:22:48;30.55;;;16.60;;
45103;SDS011;30865;51.288;4.572;2023-02-11T08:25:13;33.80;;;16.58;;
45103;SDS011;30865;51.288;4.572;2023-02-11T08:27:39;29.48;;;15.32;;
45103;SDS011;30865;51.288;4.572;2023-02-11T08:30:04;27.63;;;15.55;;
45103;SDS011;30865;51.288;4.572;2023-02-11T08:32:30;25.88;;;15.65;;
45103;SDS011;30865;51.288;4.572;2023-02-11T08:34:58;28.42;;;15.45;;
45103;SDS011;30865;51.288;4.572;2023-02-11T08:37:24;29.33;;;14.88;;
45103;SDS011;30865;51.288;4.572;2023-02-11T08:39:49;28.85;;;17.10;;
45103;SDS011;30865;51.288;4.572;2023-02-11T08:42:15;32.40;;;16.25;;
45103;SDS011;30865;51.288;4.572;2023-02-11T08:44:40;34.08;;;16.63;;
45103;SDS011;30865;51.288;4.572;2023-02-11T08:47:06;33.08;;;16.35;;
45103;SDS011;30865;51.288;4.572;2023-02-11T08:49:31;34.17;;;17.08;;
45103;SDS011;30865;51.288;4.572;2023-02-11T08:51:58;35.35;;;17.65;;
45103;SDS011;30865;51.288;4.572;2023-02-11T08:54:27;32.00;;;16.60;;
45103;SDS011;30865;51.288;4.572;2023-02-11T08:56:54;25.48;;;16.33;;
45103;SDS011;30865;51.288;4.572;2023-02-11T08:59:20;32.58;;;17.30;;
45103;SDS011;30865;51.288;4.572;2023-02-11T09:01:45;29.80;;;15.20;;
45103;SDS011;30865;51.288;4.572;2023-02-11T09:04:11;31.50;;;17.52;;
45103;SDS011;30865;51.288;4.572;2023-02-11T09:06:37;34.00;;;17.35;;
45103;SDS011;30865;51.288;4.572;2023-02-11T09:09:03;29.60;;;15.88;;
45103;SDS011;30865;51.288;4.572;2023-02-11T09:11:30;31.10;;;16.55;;
45103;SDS011;30865;51.288;4.572;2023-02-11T09:13:57;30.67;;;17.77;;
45103;SDS011;30865;51.288;4.572;2023-02-11T09:16:24;33.30;;;16.20;;
45103;SDS011;30865;51.288;4.572;2023-02-11T09:18:52;33.95;;;17.38;;
45103;SDS011;30865;51.288;4.572;2023-02-11T09:21:18;37.75;;;17.90;;
45103;SDS011;30865;51.288;4.572;2023-02-11T09:23:43;28.85;;;16.50;;
45103;SDS011;30865;51.288;4.572;2023-02-11T09:26:13;42.33;;;18.10;;
45103;SDS011;30865;51.288;4.572;2023-02-11T09:28:40;29.98;;;16.98;;
45103;SDS011;30865;51.288;4.572;2023-02-11T09:31:07;33.75;;;18.63;;
45103;SDS011;30865;51.288;4.572;2023-02-11T09:33:34;30.05;;;17.48;;
45103;SDS011;30865;51.288;4.572;2023-02-11T09:36:01;30.48;;;16.17;;
45103;SDS011;30865;51.288;4.572;2023-02-11T09:38:27;33.08;;;17.13;;
45103;SDS011;30865;51.288;4.572;2023-02-11T09:40:52;34.15;;;18.75;;
45103;SDS011;30865;51.288;4.572;2023-02-11T09:43:19;31.08;;;16.75;;
45103;SDS011;30865;51.288;4.572;2023-02-11T09:45:48;38.37;;;17.77;;
45103;SDS011;30865;51.288;4.572;2023-02-11T09:48:17;31.75;;;17.48;;
45103;SDS011;30865;51.288;4.572;2023-02-11T09:50:49;31.65;;;17.88;;
45103;SDS011;30865;51.288;4.572;2023-02-11T09:53:25;32.05;;;17.63;;
45103;SDS011;30865;51.288;4.572;2023-02-11T09:55:52;36.10;;;17.05;;
45103;SDS011;30865;51.288;4.572;2023-02-11T09:58:23;34.85;;;16.52;;
45103;SDS011;30865;51.288;4.572;2023-02-11T10:00:54;34.13;;;17.90;;
45103;SDS011;30865;51.288;4.572;2023-02-11T10:08:37;31.27;;;16.85;;
45103;SDS011;30865;51.288;4.572;2023-02-11T10:14:00;29.77;;;17.05;;
45103;SDS011;30865;51.288;4.572;2023-02-11T10:22:51;27.80;;;15.95;;
45103;SDS011;30865;51.288;4.572;2023-02-11T10:25:20;29.30;;;16.27;;
45103;SDS011;30865;51.288;4.572;2023-02-11T10:28:00;25.63;;;15.73;;
45103;SDS011;30865;51.288;4.572;2023-02-11T10:36:05;29.02;;;14.48;;
45103;SDS011;30865;51.288;4.572;2023-02-11T10:38:32;25.95;;;14.55;;
45103;SDS011;30865;51.288;4.572;2023-02-11T10:41:00;27.83;;;15.57;;
45103;SDS011;30865;51.288;4.572;2023-02-11T10:43:29;25.27;;;14.48;;
45103;SDS011;30865;51.288;4.572;2023-02-11T10:45:55;31.35;;;16.08;;
45103;SDS011;30865;51.288;4.572;2023-02-11T10:48:37;27.73;;;14.60;;
45103;SDS011;30865;51.288;4.572;2023-02-11T10:51:07;29.70;;;15.35;;
45103;SDS011;30865;51.288;4.572;2023-02-11T10:54:08;24.75;;;13.95;;
45103;SDS011;30865;51.288;4.572;2023-02-11T10:56:46;28.98;;;14.45;;
45103;SDS011;30865;51.288;4.572;2023-02-11T10:59:27;27.02;;;13.85;;
45103;SDS011;30865;51.288;4.572;2023-02-11T11:02:04;24.23;;;13.27;;
45103;SDS011;30865;51.288;4.572;2023-02-11T11:04:56;27.20;;;15.43;;
45103;SDS011;30865;51.288;4.572;2023-02-11T11:07:30;23.05;;;13.50;;
45103;SDS011;30865;51.288;4.572;2023-02-11T11:10:06;22.17;;;14.38;;
45103;SDS011;30865;51.288;4.572;2023-02-11T11:12:49;28.60;;;15.15;;
45103;SDS011;30865;51.288;4.572;2023-02-11T11:15:16;25.83;;;14.68;;
45103;SDS011;30865;51.288;4.572;2023-02-11T11:21:00;25.52;;;13.40;;
45103;SDS011;30865;51.288;4.572;2023-02-11T11:23:31;24.92;;;14.23;;
45103;SDS011;30865;51.288;4.572;2023-02-11T11:26:10;21.42;;;13.82;;
45103;SDS011;30865;51.288;4.572;2023-02-11T11:28:38;27.42;;;14.73;;
45103;SDS011;30865;51.288;4.572;2023-02-11T11:31:29;24.02;;;14.15;;
45103;SDS011;30865;51.288;4.572;2023-02-11T11:33:58;25.35;;;12.88;;
45103;SDS011;30865;51.288;4.572;2023-02-11T11:36:34;20.40;;;12.77;;
45103;SDS011;30865;51.288;4.572;2023-02-11T11:39:13;20.73;;;12.13;;
45103;SDS011;30865;51.288;4.572;2023-02-11T11:42:02;18.80;;;11.48;;
45103;SDS011;30865;51.288;4.572;2023-02-11T11:49:59;19.90;;;10.27;;
45103;SDS011;30865;51.288;4.572;2023-02-11T11:52:40;14.40;;;9.02;;
45103;SDS011;30865;51.288;4.572;2023-02-11T11:57:43;12.73;;;8.63;;
45103;SDS011;30865;51.288;4.572;2023-02-11T12:00:12;15.60;;;8.98;;
45103;SDS011;30865;51.288;4.572;2023-02-11T12:05:25;14.63;;;8.27;;
45103;SDS011;30865;51.288;4.572;2023-02-11T12:08:09;13.45;;;8.40;;
45103;SDS011;30865;51.288;4.572;2023-02-11T12:10:47;16.88;;;8.68;;
45103;SDS011;30865;51.288;4.572;2023-02-11T12:13:38;12.30;;;8.32;;
45103;SDS011;30865;51.288;4.572;2023-02-11T12:16:27;13.90;;;8.20;;
45103;SDS011;30865;51.288;4.572;2023-02-11T12:19:41;14.57;;;8.50;;
45103;SDS011;30865;51.288;4.572;2023-02-11T12:22:15;14.45;;;8.70;;
45103;SDS011;30865;51.288;4.572;2023-02-11T12:24:59;14.70;;;8.07;;
45103;SDS011;30865;51.288;4.572;2023-02-11T12:30:33;11.15;;;6.57;;
45103;SDS011;30865;51.288;4.572;2023-02-11T12:33:25;14.27;;;7.70;;
45103;SDS011;30865;51.288;4.572;2023-02-11T12:41:45;12.85;;;6.75;;
45103;SDS011;30865;51.288;4.572;2023-02-11T12:44:55;11.32;;;6.90;;
45103;SDS011;30865;51.288;4.572;2023-02-11T12:53:40;9.57;;;6.38;;
45103;SDS011;30865;51.288;4.572;2023-02-11T12:56:31;10.02;;;5.90;;
45103;SDS011;30865;51.288;4.572;2023-02-11T12:58:58;8.68;;;5.32;;
45103;SDS011;30865;51.288;4.572;2023-02-11T13:01:26;13.32;;;5.43;;
45103;SDS011;30865;51.288;4.572;2023-02-11T13:03:59;17.13;;;5.95;;
45103;SDS011;30865;51.288;4.572;2023-02-11T13:06:34;12.93;;;5.97;;
45103;SDS011;30865;51.288;4.572;2023-02-11T13:09:05;13.45;;;6.10;;
45103;SDS011;30865;51.288;4.572;2023-02-11T13:11:38;12.93;;;5.53;;
45103;SDS011;30865;51.288;4.572;2023-02-11T13:14:24;9.98;;;5.80;;
45103;SDS011;30865;51.288;4.572;2023-02-11T13:16:54;16.02;;;6.35;;
